sensor_id;sensor_type;location;lat;lon;timestamp;P1;durP1;ratioP1;P2;durP2;ratioP2
68379;SDS011;57711;53.196;19.638;2024-03-06T00:00:12;84.00;;;46.80;;
68379;SDS011;57711;53.196;19.638;2024-03-06T00:03:00;72.60;;;44.00;;
68379;SDS011;57711;53.196;19.638;2024-03-06T00:05:27;72.40;;;44.40;;
68379;SDS011;57711;53.196;19.638;2024-03-06T00:07:55;91.00;;;47.40;;
68379;SDS011;57711;53.196;19.638;2024-03-06T00:10:22;94.90;;;49.90;;
68379;SDS011;57711;53.196;19.638;2024-03-06T00:12:49;87.80;;;49.20;;
68379;SDS011;57711;53.196;19.638;2024-03-06T00:15:16;93.90;;;51.10;;
68379;SDS011;57711;53.196;19.638;2024-03-06T00:17:43;93.50;;;46.70;;
68379;SDS011;57711;53.196;19.638;2024-03-06T00:20:10;85.40;;;45.80;;
68379;SDS011;57711;53.196;19.638;2024-03-06T00:22:38;77.90;;;43.80;;
68379;SDS011;57711;53.196;19.638;2024-03-06T00:25:05;62.30;;;40.90;;
68379;SDS011;57711;53.196;19.638;2024-03-06T00:27:33;77.40;;;42.50;;
68379;SDS011;57711;53.196;19.638;2024-03-06T00:30:00;79.20;;;43.90;;
68379;SDS011;57711;53.196;19.638;2024-03-06T00:32:28;67.90;;;41.80;;
68379;SDS011;57711;53.196;19.638;2024-03-06T00:34:56;80.90;;;42.70;;
68379;SDS011;57711;53.196;19.638;2024-03-06T00:37:23;74.20;;;41.00;;
68379;SDS011;57711;53.196;19.638;2024-03-06T00:39:50;69.30;;;38.50;;
68379;SDS011;57711;53.196;19.638;2024-03-06T00:42:17;67.20;;;42.20;;
68379;SDS011;57711;53.196;19.638;2024-03-06T00:44:45;78.80;;;44.80;;
68379;SDS011;57711;53.196;19.638;2024-03-06T00:47:12;85.40;;;47.00;;
68379;SDS011;57711;53.196;19.638;2024-03-06T00:49:40;74.30;;;44.60;;
68379;SDS011;57711;53.196;19.638;2024-03-06T00:52:09;73.30;;;40.50;;
68379;SDS011;57711;53.196;19.638;2024-03-06T00:54:36;76.40;;;39.30;;
68379;SDS011;57711;53.196;19.638;2024-03-06T00:57:03;65.40;;;33.50;;
68379;SDS011;57711;53.196;19.638;2024-03-06T00:59:30;72.70;;;34.80;;
68379;SDS011;57711;53.196;19.638;2024-03-06T01:01:57;69.40;;;38.20;;
68379;SDS011;57711;53.196;19.638;2024-03-06T01:04:24;65.20;;;35.40;;
68379;SDS011;57711;53.196;19.638;2024-03-06T01:06:51;70.40;;;37.50;;
68379;SDS011;57711;53.196;19.638;2024-03-06T01:09:19;63.10;;;34.60;;
68379;SDS011;57711;53.196;19.638;2024-03-06T01:11:46;64.20;;;32.70;;
68379;SDS011;57711;53.196;19.638;2024-03-06T01:14:14;55.70;;;31.10;;
68379;SDS011;57711;53.196;19.638;2024-03-06T01:16:43;68.70;;;35.20;;
68379;SDS011;57711;53.196;19.638;2024-03-06T01:19:10;64.30;;;34.10;;
68379;SDS011;57711;53.196;19.638;2024-03-06T01:21:38;52.40;;;32.00;;
68379;SDS011;57711;53.196;19.638;2024-03-06T01:24:05;61.50;;;32.00;;
68379;SDS011;57711;53.196;19.638;2024-03-06T01:26:33;49.80;;;30.00;;
68379;SDS011;57711;53.196;19.638;2024-03-06T01:29:00;51.70;;;29.70;;
68379;SDS011;57711;53.196;19.638;2024-03-06T01:31:27;52.40;;;29.90;;
68379;SDS011;57711;53.196;19.638;2024-03-06T01:33:54;55.20;;;28.30;;
68379;SDS011;57711;53.196;19.638;2024-03-06T01:36:21;50.00;;;28.50;;
68379;SDS011;57711;53.196;19.638;2024-03-06T01:38:49;46.60;;;29.00;;
68379;SDS011;57711;53.196;19.638;2024-03-06T01:41:16;50.90;;;29.30;;
68379;SDS011;57711;53.196;19.638;2024-03-06T01:43:43;54.30;;;31.70;;
68379;SDS011;57711;53.196;19.638;2024-03-06T01:46:11;61.50;;;38.00;;
68379;SDS011;57711;53.196;19.638;2024-03-06T01:48:38;71.40;;;36.70;;
68379;SDS011;57711;53.196;19.638;2024-03-06T01:51:06;70.70;;;33.30;;
68379;SDS011;57711;53.196;19.638;2024-03-06T01:53:33;60.60;;;31.10;;
68379;SDS011;57711;53.196;19.638;2024-03-06T01:56:03;66.50;;;31.90;;
68379;SDS011;57711;53.196;19.638;2024-03-06T01:58:31;71.40;;;31.00;;
68379;SDS011;57711;53.196;19.638;2024-03-06T02:01:00;62.60;;;29.30;;
68379;SDS011;57711;53.196;19.638;2024-03-06T02:03:29;57.70;;;30.20;;
68379;SDS011;57711;53.196;19.638;2024-03-06T02:05:59;54.40;;;30.80;;
68379;SDS011;57711;53.196;19.638;2024-03-06T02:08:29;57.20;;;29.40;;
68379;SDS011;57711;53.196;19.638;2024-03-06T02:10:56;54.90;;;27.20;;
68379;SDS011;57711;53.196;19.638;2024-03-06T02:13:23;52.50;;;27.80;;
68379;SDS011;57711;53.196;19.638;2024-03-06T02:15:51;48.50;;;26.20;;
68379;SDS011;57711;53.196;19.638;2024-03-06T02:18:18;47.30;;;26.70;;
68379;SDS011;57711;53.196;19.638;2024-03-06T02:20:46;46.20;;;26.40;;
68379;SDS011;57711;53.196;19.638;2024-03-06T02:23:13;57.00;;;29.70;;
68379;SDS011;57711;53.196;19.638;2024-03-06T02:25:41;47.40;;;27.50;;
68379;SDS011;57711;53.196;19.638;2024-03-06T02:28:08;47.10;;;26.90;;
68379;SDS011;57711;53.196;19.638;2024-03-06T02:30:36;48.00;;;25.70;;
68379;SDS011;57711;53.196;19.638;2024-03-06T02:33:04;52.60;;;30.10;;
68379;SDS011;57711;53.196;19.638;2024-03-06T02:35:33;51.10;;;31.80;;
68379;SDS011;57711;53.196;19.638;2024-03-06T02:38:03;73.00;;;37.60;;
68379;SDS011;57711;53.196;19.638;2024-03-06T02:40:34;63.30;;;36.10;;
68379;SDS011;57711;53.196;19.638;2024-03-06T02:43:02;59.70;;;30.40;;
68379;SDS011;57711;53.196;19.638;2024-03-06T02:45:29;48.30;;;27.00;;
68379;SDS011;57711;53.196;19.638;2024-03-06T02:47:56;47.10;;;25.40;;
68379;SDS011;57711;53.196;19.638;2024-03-06T02:50:23;50.60;;;25.60;;
68379;SDS011;57711;53.196;19.638;2024-03-06T02:52:50;50.70;;;25.10;;
68379;SDS011;57711;53.196;19.638;2024-03-06T02:55:21;47.20;;;26.40;;
68379;SDS011;57711;53.196;19.638;2024-03-06T02:57:49;41.40;;;23.20;;
68379;SDS011;57711;53.196;19.638;2024-03-06T03:00:16;49.00;;;24.10;;
68379;SDS011;57711;53.196;19.638;2024-03-06T03:02:43;33.80;;;21.50;;
68379;SDS011;57711;53.196;19.638;2024-03-06T03:05:10;40.10;;;22.70;;
68379;SDS011;57711;53.196;19.638;2024-03-06T03:07:38;46.90;;;23.90;;
68379;SDS011;57711;53.196;19.638;2024-03-06T03:10:05;36.60;;;21.30;;
68379;SDS011;57711;53.196;19.638;2024-03-06T03:12:33;42.20;;;22.00;;
68379;SDS011;57711;53.196;19.638;2024-03-06T03:15:00;46.90;;;22.30;;
68379;SDS011;57711;53.196;19.638;2024-03-06T03:17:28;44.60;;;24.00;;
68379;SDS011;57711;53.196;19.638;2024-03-06T03:19:55;40.50;;;22.80;;
68379;SDS011;57711;53.196;19.638;2024-03-06T03:22:22;45.70;;;24.60;;
68379;SDS011;57711;53.196;19.638;2024-03-06T03:24:50;45.30;;;27.90;;
68379;SDS011;57711;53.196;19.638;2024-03-06T03:27:17;38.10;;;22.20;;
68379;SDS011;57711;53.196;19.638;2024-03-06T03:29:44;45.00;;;25.70;;
68379;SDS011;57711;53.196;19.638;2024-03-06T03:32:11;31.90;;;19.90;;
68379;SDS011;57711;53.196;19.638;2024-03-06T03:34:39;29.70;;;18.20;;
68379;SDS011;57711;53.196;19.638;2024-03-06T03:37:06;34.50;;;19.20;;
68379;SDS011;57711;53.196;19.638;2024-03-06T03:39:33;34.40;;;20.30;;
68379;SDS011;57711;53.196;19.638;2024-03-06T03:42:00;31.70;;;18.80;;
68379;SDS011;57711;53.196;19.638;2024-03-06T03:44:28;36.60;;;20.70;;
68379;SDS011;57711;53.196;19.638;2024-03-06T03:46:55;42.90;;;21.40;;
68379;SDS011;57711;53.196;19.638;2024-03-06T03:49:22;36.00;;;19.50;;
68379;SDS011;57711;53.196;19.638;2024-03-06T03:51:49;43.70;;;20.10;;
68379;SDS011;57711;53.196;19.638;2024-03-06T03:54:16;41.10;;;21.70;;
68379;SDS011;57711;53.196;19.638;2024-03-06T03:56:43;31.60;;;19.40;;
68379;SDS011;57711;53.196;19.638;2024-03-06T03:59:11;29.60;;;18.00;;
68379;SDS011;57711;53.196;19.638;2024-03-06T04:01:38;35.40;;;20.90;;
68379;SDS011;57711;53.196;19.638;2024-03-06T04:04:05;41.10;;;21.60;;
68379;SDS011;57711;53.196;19.638;2024-03-06T04:06:34;37.90;;;21.60;;
68379;SDS011;57711;53.196;19.638;2024-03-06T04:09:02;35.40;;;21.10;;
68379;SDS011;57711;53.196;19.638;2024-03-06T04:11:29;48.00;;;23.20;;
68379;SDS011;57711;53.196;19.638;2024-03-06T04:13:56;57.90;;;33.90;;
68379;SDS011;57711;53.196;19.638;2024-03-06T04:16:23;58.50;;;32.80;;
68379;SDS011;57711;53.196;19.638;2024-03-06T04:18:50;65.60;;;34.90;;
68379;SDS011;57711;53.196;19.638;2024-03-06T04:21:18;47.80;;;27.40;;
68379;SDS011;57711;53.196;19.638;2024-03-06T04:23:45;48.50;;;24.60;;
68379;SDS011;57711;53.196;19.638;2024-03-06T04:26:13;38.90;;;21.10;;
68379;SDS011;57711;53.196;19.638;2024-03-06T04:28:40;37.70;;;18.20;;
68379;SDS011;57711;53.196;19.638;2024-03-06T04:31:07;51.30;;;29.90;;
68379;SDS011;57711;53.196;19.638;2024-03-06T04:33:36;40.70;;;22.20;;
68379;SDS011;57711;53.196;19.638;2024-03-06T04:36:03;40.10;;;22.40;;
68379;SDS011;57711;53.196;19.638;2024-03-06T04:38:35;33.80;;;21.40;;
68379;SDS011;57711;53.196;19.638;2024-03-06T04:41:04;42.30;;;21.10;;
68379;SDS011;57711;53.196;19.638;2024-03-06T04:43:32;33.80;;;18.70;;
68379;SDS011;57711;53.196;19.638;2024-03-06T04:45:59;30.00;;;17.00;;
68379;SDS011;57711;53.196;19.638;2024-03-06T04:48:26;41.80;;;19.40;;
68379;SDS011;57711;53.196;19.638;2024-03-06T04:50:53;37.70;;;20.70;;
68379;SDS011;57711;53.196;19.638;2024-03-06T04:53:21;33.40;;;17.90;;
68379;SDS011;57711;53.196;19.638;2024-03-06T04:55:48;28.10;;;17.10;;
68379;SDS011;57711;53.196;19.638;2024-03-06T04:58:15;29.00;;;17.20;;
68379;SDS011;57711;53.196;19.638;2024-03-06T05:00:42;28.60;;;17.80;;
68379;SDS011;57711;53.196;19.638;2024-03-06T05:03:09;31.40;;;16.90;;
68379;SDS011;57711;53.196;19.638;2024-03-06T05:05:54;31.00;;;20.20;;
68379;SDS011;57711;53.196;19.638;2024-03-06T05:08:38;30.50;;;15.80;;
68379;SDS011;57711;53.196;19.638;2024-03-06T05:11:23;31.70;;;20.50;;
68379;SDS011;57711;53.196;19.638;2024-03-06T05:14:08;48.10;;;24.30;;
68379;SDS011;57711;53.196;19.638;2024-03-06T05:16:52;96.50;;;33.60;;
68379;SDS011;57711;53.196;19.638;2024-03-06T05:19:37;114.30;;;45.10;;
68379;SDS011;57711;53.196;19.638;2024-03-06T05:22:22;51.80;;;24.90;;
68379;SDS011;57711;53.196;19.638;2024-03-06T05:25:07;45.60;;;21.60;;
68379;SDS011;57711;53.196;19.638;2024-03-06T05:27:52;39.60;;;18.40;;
68379;SDS011;57711;53.196;19.638;2024-03-06T05:30:37;49.60;;;19.80;;
68379;SDS011;57711;53.196;19.638;2024-03-06T05:33:22;37.10;;;18.90;;
68379;SDS011;57711;53.196;19.638;2024-03-06T05:36:06;38.90;;;18.60;;
68379;SDS011;57711;53.196;19.638;2024-03-06T05:38:51;31.30;;;19.10;;
68379;SDS011;57711;53.196;19.638;2024-03-06T05:41:37;41.20;;;20.10;;
68379;SDS011;57711;53.196;19.638;2024-03-06T05:44:21;34.90;;;18.90;;
68379;SDS011;57711;53.196;19.638;2024-03-06T05:47:06;33.90;;;17.20;;
68379;SDS011;57711;53.196;19.638;2024-03-06T05:49:51;33.50;;;19.60;;
68379;SDS011;57711;53.196;19.638;2024-03-06T05:52:36;31.00;;;18.20;;
68379;SDS011;57711;53.196;19.638;2024-03-06T05:55:21;31.30;;;18.70;;
68379;SDS011;57711;53.196;19.638;2024-03-06T05:58:05;28.10;;;16.40;;
68379;SDS011;57711;53.196;19.638;2024-03-06T06:00:39;37.50;;;21.90;;
68379;SDS011;57711;53.196;19.638;2024-03-06T06:03:07;47.80;;;23.00;;
68379;SDS011;57711;53.196;19.638;2024-03-06T06:05:37;42.90;;;23.40;;
68379;SDS011;57711;53.196;19.638;2024-03-06T06:08:06;63.10;;;31.70;;
68379;SDS011;57711;53.196;19.638;2024-03-06T06:10:34;36.80;;;20.60;;
68379;SDS011;57711;53.196;19.638;2024-03-06T06:13:01;28.70;;;16.40;;
68379;SDS011;57711;53.196;19.638;2024-03-06T06:15:32;37.70;;;19.40;;
68379;SDS011;57711;53.196;19.638;2024-03-06T06:17:59;35.70;;;17.90;;
68379;SDS011;57711;53.196;19.638;2024-03-06T06:20:26;36.40;;;18.50;;
68379;SDS011;57711;53.196;19.638;2024-03-06T06:22:54;36.80;;;18.10;;
68379;SDS011;57711;53.196;19.638;2024-03-06T06:25:22;33.10;;;17.70;;
68379;SDS011;57711;53.196;19.638;2024-03-06T06:27:49;30.50;;;16.60;;
68379;SDS011;57711;53.196;19.638;2024-03-06T06:30:16;33.00;;;17.90;;
68379;SDS011;57711;53.196;19.638;2024-03-06T06:32:44;35.50;;;18.40;;
68379;SDS011;57711;53.196;19.638;2024-03-06T06:35:11;29.80;;;16.30;;
68379;SDS011;57711;53.196;19.638;2024-03-06T06:37:40;34.00;;;17.00;;
68379;SDS011;57711;53.196;19.638;2024-03-06T06:40:08;38.30;;;17.10;;
68379;SDS011;57711;53.196;19.638;2024-03-06T06:42:36;32.40;;;16.80;;
68379;SDS011;57711;53.196;19.638;2024-03-06T06:45:04;51.10;;;23.80;;
68379;SDS011;57711;53.196;19.638;2024-03-06T06:47:36;33.60;;;19.30;;
68379;SDS011;57711;53.196;19.638;2024-03-06T06:50:04;37.00;;;19.50;;
68379;SDS011;57711;53.196;19.638;2024-03-06T06:52:33;38.50;;;21.30;;
68379;SDS011;57711;53.196;19.638;2024-03-06T06:55:01;33.20;;;20.90;;
68379;SDS011;57711;53.196;19.638;2024-03-06T06:57:29;41.90;;;21.60;;
68379;SDS011;57711;53.196;19.638;2024-03-06T06:59:57;31.70;;;16.90;;
68379;SDS011;57711;53.196;19.638;2024-03-06T07:02:24;32.40;;;15.70;;
68379;SDS011;57711;53.196;19.638;2024-03-06T07:04:52;31.50;;;15.30;;
68379;SDS011;57711;53.196;19.638;2024-03-06T07:07:19;38.10;;;19.10;;
68379;SDS011;57711;53.196;19.638;2024-03-06T07:09:48;31.90;;;16.70;;
68379;SDS011;57711;53.196;19.638;2024-03-06T07:12:15;30.80;;;16.10;;
68379;SDS011;57711;53.196;19.638;2024-03-06T07:14:43;35.00;;;16.00;;
68379;SDS011;57711;53.196;19.638;2024-03-06T07:17:10;35.40;;;17.10;;
68379;SDS011;57711;53.196;19.638;2024-03-06T07:19:37;29.80;;;16.10;;
68379;SDS011;57711;53.196;19.638;2024-03-06T07:22:04;26.70;;;15.90;;
68379;SDS011;57711;53.196;19.638;2024-03-06T07:24:32;41.10;;;17.80;;
68379;SDS011;57711;53.196;19.638;2024-03-06T07:27:03;39.80;;;20.70;;
68379;SDS011;57711;53.196;19.638;2024-03-06T07:29:30;46.30;;;21.60;;
68379;SDS011;57711;53.196;19.638;2024-03-06T07:31:57;42.90;;;21.00;;
68379;SDS011;57711;53.196;19.638;2024-03-06T07:34:25;35.50;;;16.60;;
68379;SDS011;57711;53.196;19.638;2024-03-06T07:36:52;30.60;;;16.00;;
68379;SDS011;57711;53.196;19.638;2024-03-06T07:39:19;30.50;;;15.70;;
68379;SDS011;57711;53.196;19.638;2024-03-06T07:41:47;25.70;;;15.10;;
68379;SDS011;57711;53.196;19.638;2024-03-06T07:44:14;40.70;;;21.50;;
68379;SDS011;57711;53.196;19.638;2024-03-06T07:46:42;34.50;;;17.30;;
68379;SDS011;57711;53.196;19.638;2024-03-06T07:49:09;39.10;;;19.30;;
68379;SDS011;57711;53.196;19.638;2024-03-06T07:51:36;33.60;;;17.30;;
68379;SDS011;57711;53.196;19.638;2024-03-06T07:54:03;29.60;;;16.20;;
68379;SDS011;57711;53.196;19.638;2024-03-06T07:56:31;45.90;;;19.10;;
68379;SDS011;57711;53.196;19.638;2024-03-06T07:58:58;38.30;;;18.70;;
68379;SDS011;57711;53.196;19.638;2024-03-06T08:01:27;32.60;;;16.10;;
68379;SDS011;57711;53.196;19.638;2024-03-06T08:03:56;29.30;;;14.40;;
68379;SDS011;57711;53.196;19.638;2024-03-06T08:06:23;26.70;;;12.90;;
68379;SDS011;57711;53.196;19.638;2024-03-06T08:08:50;37.20;;;17.40;;
68379;SDS011;57711;53.196;19.638;2024-03-06T08:11:23;23.90;;;14.50;;
68379;SDS011;57711;53.196;19.638;2024-03-06T08:13:56;26.90;;;14.20;;
68379;SDS011;57711;53.196;19.638;2024-03-06T08:16:29;213.40;;;96.70;;
68379;SDS011;57711;53.196;19.638;2024-03-06T08:19:01;99.10;;;42.50;;
68379;SDS011;57711;53.196;19.638;2024-03-06T08:21:28;47.00;;;24.40;;
68379;SDS011;57711;53.196;19.638;2024-03-06T08:23:55;37.30;;;17.30;;
68379;SDS011;57711;53.196;19.638;2024-03-06T08:26:22;27.70;;;14.80;;
68379;SDS011;57711;53.196;19.638;2024-03-06T08:28:50;40.10;;;18.30;;
68379;SDS011;57711;53.196;19.638;2024-03-06T08:31:18;29.10;;;14.00;;
68379;SDS011;57711;53.196;19.638;2024-03-06T08:33:45;25.40;;;13.70;;
68379;SDS011;57711;53.196;19.638;2024-03-06T08:36:13;26.10;;;15.20;;
68379;SDS011;57711;53.196;19.638;2024-03-06T08:38:40;22.10;;;13.80;;
68379;SDS011;57711;53.196;19.638;2024-03-06T08:41:08;56.20;;;27.80;;
68379;SDS011;57711;53.196;19.638;2024-03-06T08:43:35;31.90;;;17.90;;
68379;SDS011;57711;53.196;19.638;2024-03-06T08:46:03;29.30;;;15.10;;
68379;SDS011;57711;53.196;19.638;2024-03-06T08:48:30;28.30;;;14.20;;
68379;SDS011;57711;53.196;19.638;2024-03-06T08:50:57;32.10;;;17.10;;
68379;SDS011;57711;53.196;19.638;2024-03-06T08:53:25;56.70;;;20.90;;
68379;SDS011;57711;53.196;19.638;2024-03-06T08:55:53;63.50;;;24.20;;
68379;SDS011;57711;53.196;19.638;2024-03-06T08:58:20;64.00;;;28.20;;
68379;SDS011;57711;53.196;19.638;2024-03-06T09:00:48;66.30;;;26.90;;
68379;SDS011;57711;53.196;19.638;2024-03-06T09:03:16;77.20;;;29.00;;
68379;SDS011;57711;53.196;19.638;2024-03-06T09:05:43;44.60;;;19.80;;
68379;SDS011;57711;53.196;19.638;2024-03-06T09:08:10;35.70;;;14.30;;
68379;SDS011;57711;53.196;19.638;2024-03-06T09:10:39;76.40;;;46.10;;
68379;SDS011;57711;53.196;19.638;2024-03-06T09:13:06;135.30;;;80.10;;
68379;SDS011;57711;53.196;19.638;2024-03-06T09:15:34;171.90;;;109.40;;
68379;SDS011;57711;53.196;19.638;2024-03-06T09:18:01;80.20;;;49.20;;
68379;SDS011;57711;53.196;19.638;2024-03-06T09:20:30;69.00;;;37.10;;
68379;SDS011;57711;53.196;19.638;2024-03-06T09:22:58;59.10;;;31.20;;
68379;SDS011;57711;53.196;19.638;2024-03-06T09:25:27;42.30;;;21.20;;
68379;SDS011;57711;53.196;19.638;2024-03-06T09:27:56;33.00;;;16.80;;
68379;SDS011;57711;53.196;19.638;2024-03-06T09:30:23;38.80;;;18.10;;
68379;SDS011;57711;53.196;19.638;2024-03-06T09:32:51;33.60;;;17.40;;
68379;SDS011;57711;53.196;19.638;2024-03-06T09:35:19;23.20;;;13.80;;
68379;SDS011;57711;53.196;19.638;2024-03-06T09:37:46;35.00;;;16.00;;
68379;SDS011;57711;53.196;19.638;2024-03-06T09:40:20;28.70;;;15.60;;
68379;SDS011;57711;53.196;19.638;2024-03-06T09:42:51;27.20;;;12.00;;
68379;SDS011;57711;53.196;19.638;2024-03-06T09:45:18;25.30;;;12.60;;
68379;SDS011;57711;53.196;19.638;2024-03-06T09:47:49;36.10;;;15.20;;
68379;SDS011;57711;53.196;19.638;2024-03-06T09:50:22;41.00;;;15.00;;
68379;SDS011;57711;53.196;19.638;2024-03-06T09:52:52;46.60;;;20.00;;
68379;SDS011;57711;53.196;19.638;2024-03-06T09:55:22;41.30;;;19.10;;
68379;SDS011;57711;53.196;19.638;2024-03-06T09:57:49;39.90;;;18.60;;
68379;SDS011;57711;53.196;19.638;2024-03-06T10:00:17;28.60;;;13.70;;
68379;SDS011;57711;53.196;19.638;2024-03-06T10:02:58;19.60;;;10.90;;
68379;SDS011;57711;53.196;19.638;2024-03-06T10:05:30;20.00;;;10.50;;
68379;SDS011;57711;53.196;19.638;2024-03-06T10:08:00;22.90;;;10.00;;
68379;SDS011;57711;53.196;19.638;2024-03-06T10:10:27;18.50;;;10.10;;
68379;SDS011;57711;53.196;19.638;2024-03-06T10:12:55;17.90;;;9.20;;
68379;SDS011;57711;53.196;19.638;2024-03-06T10:15:23;24.60;;;9.70;;
68379;SDS011;57711;53.196;19.638;2024-03-06T10:18:00;18.70;;;9.60;;
68379;SDS011;57711;53.196;19.638;2024-03-06T10:20:38;20.70;;;8.70;;
68379;SDS011;57711;53.196;19.638;2024-03-06T10:23:06;21.40;;;10.50;;
68379;SDS011;57711;53.196;19.638;2024-03-06T10:25:35;19.60;;;10.80;;
68379;SDS011;57711;53.196;19.638;2024-03-06T10:28:04;34.80;;;17.00;;
68379;SDS011;57711;53.196;19.638;2024-03-06T10:30:34;33.70;;;14.90;;
68379;SDS011;57711;53.196;19.638;2024-03-06T10:33:03;16.30;;;8.70;;
68379;SDS011;57711;53.196;19.638;2024-03-06T10:35:33;16.80;;;9.60;;
68379;SDS011;57711;53.196;19.638;2024-03-06T10:38:01;14.10;;;8.10;;
68379;SDS011;57711;53.196;19.638;2024-03-06T10:40:30;23.70;;;8.00;;
68379;SDS011;57711;53.196;19.638;2024-03-06T10:42:59;15.70;;;8.50;;
68379;SDS011;57711;53.196;19.638;2024-03-06T10:46:00;20.70;;;8.20;;
68379;SDS011;57711;53.196;19.638;2024-03-06T10:48:28;26.00;;;8.80;;
68379;SDS011;57711;53.196;19.638;2024-03-06T10:50:56;21.20;;;8.70;;
68379;SDS011;57711;53.196;19.638;2024-03-06T10:53:25;35.80;;;14.00;;
68379;SDS011;57711;53.196;19.638;2024-03-06T10:55:55;32.20;;;13.30;;
68379;SDS011;57711;53.196;19.638;2024-03-06T10:58:24;43.90;;;18.20;;
68379;SDS011;57711;53.196;19.638;2024-03-06T11:00:52;34.70;;;15.80;;
68379;SDS011;57711;53.196;19.638;2024-03-06T11:03:22;20.90;;;10.60;;
68379;SDS011;57711;53.196;19.638;2024-03-06T11:05:51;16.80;;;8.70;;
68379;SDS011;57711;53.196;19.638;2024-03-06T11:08:19;22.60;;;9.70;;
68379;SDS011;57711;53.196;19.638;2024-03-06T11:10:47;17.90;;;9.50;;
68379;SDS011;57711;53.196;19.638;2024-03-06T11:13:21;21.50;;;8.40;;
68379;SDS011;57711;53.196;19.638;2024-03-06T11:15:50;16.30;;;7.60;;
68379;SDS011;57711;53.196;19.638;2024-03-06T11:26:41;26.10;;;12.30;;
68379;SDS011;57711;53.196;19.638;2024-03-06T11:29:09;30.90;;;14.20;;
68379;SDS011;57711;53.196;19.638;2024-03-06T11:31:36;20.30;;;9.90;;
68379;SDS011;57711;53.196;19.638;2024-03-06T11:34:04;27.30;;;11.70;;
68379;SDS011;57711;53.196;19.638;2024-03-06T11:36:31;17.80;;;8.70;;
68379;SDS011;57711;53.196;19.638;2024-03-06T11:39:04;15.90;;;8.60;;
68379;SDS011;57711;53.196;19.638;2024-03-06T11:44:17;18.90;;;8.80;;
68379;SDS011;57711;53.196;19.638;2024-03-06T11:46:57;22.20;;;9.50;;
68379;SDS011;57711;53.196;19.638;2024-03-06T11:49:29;24.20;;;10.90;;
68379;SDS011;57711;53.196;19.638;2024-03-06T11:52:04;31.90;;;14.00;;
68379;SDS011;57711;53.196;19.638;2024-03-06T11:54:32;29.60;;;12.50;;
68379;SDS011;57711;53.196;19.638;2024-03-06T11:57:01;28.50;;;12.90;;
68379;SDS011;57711;53.196;19.638;2024-03-06T11:59:31;22.50;;;10.00;;
68379;SDS011;57711;53.196;19.638;2024-03-06T12:02:00;28.20;;;12.60;;
68379;SDS011;57711;53.196;19.638;2024-03-06T12:04:29;35.20;;;11.80;;
68379;SDS011;57711;53.196;19.638;2024-03-06T12:06:58;26.90;;;11.70;;
68379;SDS011;57711;53.196;19.638;2024-03-06T12:09:26;30.30;;;10.90;;
68379;SDS011;57711;53.196;19.638;2024-03-06T12:11:55;27.40;;;10.60;;
68379;SDS011;57711;53.196;19.638;2024-03-06T12:14:24;25.60;;;10.20;;
68379;SDS011;57711;53.196;19.638;2024-03-06T12:16:58;13.30;;;7.90;;
68379;SDS011;57711;53.196;19.638;2024-03-06T12:19:27;26.80;;;9.00;;
68379;SDS011;57711;53.196;19.638;2024-03-06T12:21:55;24.50;;;8.20;;
68379;SDS011;57711;53.196;19.638;2024-03-06T12:24:22;22.90;;;9.40;;
68379;SDS011;57711;53.196;19.638;2024-03-06T12:26:58;27.10;;;8.40;;
68379;SDS011;57711;53.196;19.638;2024-03-06T12:29:28;25.10;;;10.40;;
68379;SDS011;57711;53.196;19.638;2024-03-06T12:31:59;28.60;;;8.90;;
68379;SDS011;57711;53.196;19.638;2024-03-06T12:34:28;19.60;;;9.10;;
68379;SDS011;57711;53.196;19.638;2024-03-06T12:37:07;23.90;;;9.00;;
68379;SDS011;57711;53.196;19.638;2024-03-06T12:39:36;36.50;;;14.60;;
68379;SDS011;57711;53.196;19.638;2024-03-06T12:42:08;25.60;;;11.80;;
68379;SDS011;57711;53.196;19.638;2024-03-06T12:44:35;26.80;;;11.00;;
68379;SDS011;57711;53.196;19.638;2024-03-06T12:47:03;37.60;;;14.70;;
68379;SDS011;57711;53.196;19.638;2024-03-06T12:49:30;16.20;;;7.60;;
68379;SDS011;57711;53.196;19.638;2024-03-06T12:51:57;29.90;;;12.40;;
68379;SDS011;57711;53.196;19.638;2024-03-06T12:54:28;43.40;;;16.30;;
68379;SDS011;57711;53.196;19.638;2024-03-06T12:56:55;28.10;;;9.40;;
68379;SDS011;57711;53.196;19.638;2024-03-06T12:59:23;22.00;;;8.60;;
68379;SDS011;57711;53.196;19.638;2024-03-06T13:01:51;16.50;;;7.70;;
68379;SDS011;57711;53.196;19.638;2024-03-06T13:04:19;15.00;;;7.10;;
68379;SDS011;57711;53.196;19.638;2024-03-06T13:06:46;13.10;;;5.90;;
68379;SDS011;57711;53.196;19.638;2024-03-06T13:09:13;20.20;;;10.20;;
68379;SDS011;57711;53.196;19.638;2024-03-06T13:11:40;22.50;;;10.00;;
68379;SDS011;57711;53.196;19.638;2024-03-06T13:14:09;20.00;;;9.30;;
68379;SDS011;57711;53.196;19.638;2024-03-06T13:16:39;18.50;;;8.70;;
68379;SDS011;57711;53.196;19.638;2024-03-06T13:19:07;24.30;;;8.70;;
68379;SDS011;57711;53.196;19.638;2024-03-06T13:21:35;32.50;;;11.70;;
68379;SDS011;57711;53.196;19.638;2024-03-06T13:24:02;36.10;;;12.90;;
68379;SDS011;57711;53.196;19.638;2024-03-06T13:26:30;33.40;;;11.70;;
68379;SDS011;57711;53.196;19.638;2024-03-06T13:28:57;21.20;;;10.10;;
68379;SDS011;57711;53.196;19.638;2024-03-06T13:31:26;26.10;;;9.50;;
68379;SDS011;57711;53.196;19.638;2024-03-06T13:33:54;27.00;;;10.10;;
68379;SDS011;57711;53.196;19.638;2024-03-06T13:36:21;27.10;;;10.40;;
68379;SDS011;57711;53.196;19.638;2024-03-06T13:38:49;31.00;;;9.90;;
68379;SDS011;57711;53.196;19.638;2024-03-06T13:41:17;36.30;;;9.40;;
68379;SDS011;57711;53.196;19.638;2024-03-06T13:43:44;26.80;;;10.30;;
68379;SDS011;57711;53.196;19.638;2024-03-06T13:46:11;17.90;;;7.10;;
68379;SDS011;57711;53.196;19.638;2024-03-06T13:48:39;15.10;;;6.50;;
68379;SDS011;57711;53.196;19.638;2024-03-06T13:51:06;20.90;;;9.00;;
68379;SDS011;57711;53.196;19.638;2024-03-06T13:53:34;14.50;;;7.40;;
68379;SDS011;57711;53.196;19.638;2024-03-06T13:56:01;27.20;;;12.30;;
68379;SDS011;57711;53.196;19.638;2024-03-06T13:58:29;46.50;;;14.60;;
68379;SDS011;57711;53.196;19.638;2024-03-06T14:00:56;43.90;;;16.70;;
68379;SDS011;57711;53.196;19.638;2024-03-06T14:03:23;46.80;;;17.60;;
68379;SDS011;57711;53.196;19.638;2024-03-06T14:05:51;31.70;;;10.90;;
68379;SDS011;57711;53.196;19.638;2024-03-06T14:08:19;43.10;;;11.50;;
68379;SDS011;57711;53.196;19.638;2024-03-06T14:10:46;26.60;;;7.20;;
68379;SDS011;57711;53.196;19.638;2024-03-06T14:13:14;27.50;;;9.80;;
68379;SDS011;57711;53.196;19.638;2024-03-06T14:15:41;18.90;;;6.70;;
68379;SDS011;57711;53.196;19.638;2024-03-06T14:18:08;16.50;;;7.00;;
68379;SDS011;57711;53.196;19.638;2024-03-06T14:20:36;15.50;;;7.20;;
68379;SDS011;57711;53.196;19.638;2024-03-06T14:23:06;13.90;;;6.00;;
68379;SDS011;57711;53.196;19.638;2024-03-06T14:25:34;14.80;;;6.50;;
68379;SDS011;57711;53.196;19.638;2024-03-06T14:28:04;21.10;;;8.30;;
68379;SDS011;57711;53.196;19.638;2024-03-06T14:30:31;29.90;;;12.20;;
68379;SDS011;57711;53.196;19.638;2024-03-06T14:32:58;25.50;;;9.00;;